createdAt,value
2023-03-07T00:01:48.104Z,9.85
2023-03-07T00:04:14.965Z,9.30
2023-03-07T00:06:41.643Z,9.43
2023-03-07T00:09:09.218Z,8.90
2023-03-07T00:11:35.911Z,9.82
2023-03-07T00:14:07.111Z,9.80
2023-03-07T00:16:33.802Z,8.82
2023-03-07T00:19:00.729Z,9.25
2023-03-07T00:21:31.327Z,8.80
2023-03-07T00:23:57.985Z,9.05
2023-03-07T00:26:26.081Z,8.85
2023-03-07T00:28:54.725Z,9.65
2023-03-07T00:31:22.716Z,8.65
2023-03-07T00:33:49.644Z,8.38
2023-03-07T00:36:21.610Z,8.75
2023-03-07T00:38:49.278Z,9.50
2023-03-07T00:41:19.087Z,9.05
2023-03-07T00:43:47.333Z,8.85
2023-03-07T00:46:16.233Z,7.68
2023-03-07T00:48:43.264Z,8.13
2023-03-07T00:51:12.933Z,8.35
2023-03-07T00:53:40.413Z,8.52
2023-03-07T00:56:17.485Z,8.52
2023-03-07T00:58:45.645Z,8.60
2023-03-07T01:01:15.466Z,8.40
2023-03-07T01:03:42.586Z,8.57
2023-03-07T01:06:14.979Z,8.43
2023-03-07T01:08:41.899Z,8.98
2023-03-07T01:11:10.426Z,8.20
2023-03-07T01:13:38.117Z,7.50
2023-03-07T01:16:11.824Z,8.65
2023-03-07T01:18:39.722Z,7.65
2023-03-07T01:21:22.011Z,8.50
2023-03-07T01:23:49.553Z,9.10
2023-03-07T01:26:19.257Z,8.55
2023-03-07T01:28:47.416Z,7.90
2023-03-07T01:31:14.302Z,7.80
2023-03-07T01:33:41.307Z,8.52
2023-03-07T01:36:22.429Z,8.93
2023-03-07T01:38:49.897Z,8.27
2023-03-07T01:41:17.450Z,8.02
2023-03-07T01:43:46.186Z,8.18
2023-03-07T01:49:09.386Z,8.23
2023-03-07T01:51:40.538Z,8.75
2023-03-07T01:54:09.059Z,7.97
2023-03-07T01:56:37.876Z,8.52
2023-03-07T01:59:06.365Z,8.20
2023-03-07T02:01:33.830Z,9.38
2023-03-07T02:04:36.734Z,8.38
2023-03-07T02:07:03.890Z,8.50
2023-03-07T02:09:32.701Z,8.63
2023-03-07T02:12:01.625Z,8.50
2023-03-07T02:14:28.902Z,8.13
2023-03-07T02:16:55.974Z,8.35
2023-03-07T02:19:34.088Z,7.88
2023-03-07T02:22:17.559Z,9.35
2023-03-07T02:24:58.637Z,8.43
2023-03-07T02:27:26.882Z,8.68
2023-03-07T02:29:53.724Z,8.63
2023-03-07T02:32:20.944Z,8.43
2023-03-07T02:34:47.710Z,8.73
2023-03-07T02:37:27.285Z,8.90
2023-03-07T02:39:56.504Z,8.70
2023-03-07T02:42:27.960Z,8.23
2023-03-07T02:45:15.406Z,9.10
2023-03-07T02:47:44.137Z,8.80
2023-03-07T02:50:15.005Z,8.65
2023-03-07T02:52:44.755Z,8.43
2023-03-07T02:55:12.715Z,8.55
2023-03-07T02:57:46.070Z,9.02
2023-03-07T03:00:13.130Z,9.02
2023-03-07T03:02:39.903Z,8.85
2023-03-07T03:05:07.128Z,9.68
2023-03-07T03:07:33.801Z,8.48
2023-03-07T03:10:02.306Z,9.05
2023-03-07T03:12:31.661Z,8.95
2023-03-07T03:14:58.996Z,9.57
2023-03-07T03:17:26.172Z,9.07
2023-03-07T03:19:52.854Z,8.73
2023-03-07T03:22:20.567Z,9.23
2023-03-07T03:24:49.134Z,8.65
2023-03-07T03:27:17.259Z,8.20
2023-03-07T03:29:45.756Z,9.07
2023-03-07T03:32:13.275Z,9.48
2023-03-07T03:34:43.023Z,8.73
2023-03-07T03:37:09.735Z,8.82
2023-03-07T03:39:37.632Z,9.50
2023-03-07T03:42:06.122Z,9.20
2023-03-07T03:44:32.867Z,9.63
2023-03-07T03:46:59.676Z,9.02
2023-03-07T03:49:27.348Z,9.63
2023-03-07T03:51:54.894Z,9.00
2023-03-07T03:54:21.950Z,9.35
2023-03-07T03:56:48.684Z,9.30
2023-03-07T03:59:15.420Z,9.68
2023-03-07T04:01:42.667Z,9.52
2023-03-07T04:04:09.669Z,9.00
2023-03-07T04:06:37.536Z,8.80
2023-03-07T04:09:05.373Z,9.55
2023-03-07T04:11:32.996Z,8.65
2023-03-07T04:13:59.710Z,10.25
2023-03-07T04:16:27.029Z,9.63
2023-03-07T04:18:53.949Z,10.00
2023-03-07T04:21:21.867Z,9.63
2023-03-07T04:23:50.462Z,9.88
2023-03-07T04:26:17.751Z,9.98
2023-03-07T04:28:44.844Z,9.13
2023-03-07T04:31:19.728Z,9.20
2023-03-07T04:33:47.637Z,9.18
2023-03-07T04:36:16.321Z,10.13
2023-03-07T04:38:43.284Z,10.02
2023-03-07T04:41:21.525Z,9.45
2023-03-07T04:43:51.337Z,9.70
2023-03-07T04:46:19.342Z,9.57
2023-03-07T04:48:46.658Z,8.93
2023-03-07T04:51:13.953Z,8.88
2023-03-07T04:53:41.498Z,8.95
2023-03-07T04:56:09.804Z,9.70
2023-03-07T04:58:38.215Z,9.32
2023-03-07T05:01:06.014Z,10.00
2023-03-07T05:03:33.942Z,9.70
2023-03-07T05:06:03.247Z,8.63
2023-03-07T05:08:30.756Z,9.60
2023-03-07T05:10:57.797Z,9.48
2023-03-07T05:13:25.945Z,9.32
2023-03-07T05:15:54.689Z,9.98
2023-03-07T05:18:23.526Z,9.13
2023-03-07T05:20:51.643Z,8.27
2023-03-07T05:23:19.692Z,9.32
2023-03-07T05:25:48.458Z,9.35
2023-03-07T05:28:16.888Z,9.55
2023-03-07T05:30:45.170Z,9.38
2023-03-07T05:33:13.878Z,9.30
2023-03-07T05:35:41.147Z,8.85
2023-03-07T05:38:09.665Z,8.40
2023-03-07T05:40:36.658Z,7.82
2023-03-07T05:43:04.006Z,9.57
2023-03-07T05:45:31.438Z,8.00
2023-03-07T05:47:59.811Z,8.35
2023-03-07T05:50:26.798Z,8.60
2023-03-07T05:52:53.857Z,8.30
2023-03-07T05:55:21.168Z,8.35
2023-03-07T05:57:48.420Z,8.65
2023-03-07T06:00:16.075Z,8.05
2023-03-07T06:02:48.124Z,8.13
2023-03-07T06:05:16.012Z,8.35
2023-03-07T06:07:43.983Z,8.65
2023-03-07T06:10:13.778Z,8.40
2023-03-07T06:12:40.720Z,7.25
2023-03-07T06:15:08.936Z,9.38
2023-03-07T06:17:36.114Z,7.90
2023-03-07T06:20:04.129Z,8.48
2023-03-07T06:22:32.122Z,8.57
2023-03-07T06:25:01.106Z,8.70
2023-03-07T06:27:27.979Z,8.00
2023-03-07T06:29:55.038Z,7.65
2023-03-07T06:32:21.802Z,8.00
2023-03-07T06:34:48.638Z,7.90
2023-03-07T06:37:15.601Z,7.90
2023-03-07T06:39:42.816Z,8.38
2023-03-07T06:42:09.715Z,8.05
2023-03-07T06:44:36.501Z,8.10
2023-03-07T06:47:03.928Z,8.15
2023-03-07T06:49:30.812Z,7.32
2023-03-07T06:51:57.577Z,8.20
2023-03-07T06:54:24.499Z,8.15
2023-03-07T06:56:51.683Z,8.55
2023-03-07T06:59:25.467Z,8.35
2023-03-07T07:01:53.797Z,7.60
2023-03-07T07:04:22.257Z,8.25
2023-03-07T07:06:50.624Z,7.82
2023-03-07T07:09:17.944Z,7.75
2023-03-07T07:11:44.937Z,7.57
2023-03-07T07:14:12.932Z,7.20
2023-03-07T07:16:41.382Z,7.57
2023-03-07T07:19:09.931Z,7.60
2023-03-07T07:21:36.946Z,7.38
2023-03-07T07:24:04.812Z,7.63
2023-03-07T07:26:32.432Z,7.85
2023-03-07T07:29:00.557Z,7.88
2023-03-07T07:31:27.567Z,7.45
2023-03-07T07:33:54.494Z,8.40
2023-03-07T07:36:23.817Z,8.25
2023-03-07T07:38:51.946Z,8.18
2023-03-07T07:41:18.730Z,8.30
2023-03-07T07:43:48.285Z,8.25
2023-03-07T07:46:21.210Z,7.78
2023-03-07T07:48:48.620Z,7.30
2023-03-07T07:51:16.885Z,7.93
2023-03-07T07:53:43.814Z,8.35
2023-03-07T07:56:10.903Z,7.57
2023-03-07T07:58:37.803Z,7.68
2023-03-07T08:01:22.697Z,8.23
2023-03-07T08:03:49.558Z,8.23
2023-03-07T08:06:21.844Z,7.75
2023-03-07T08:08:49.752Z,7.82
2023-03-07T08:11:17.962Z,7.55
2023-03-07T08:13:45.161Z,8.57
2023-03-07T08:16:20.028Z,7.55
2023-03-07T08:18:55.967Z,8.07
2023-03-07T08:21:24.139Z,7.63
2023-03-07T08:23:51.962Z,7.78
2023-03-07T08:26:18.844Z,8.10
2023-03-07T08:28:46.757Z,7.95
2023-03-07T08:31:15.042Z,7.88
2023-03-07T08:33:42.062Z,7.82
2023-03-07T08:36:09.573Z,7.43
2023-03-07T08:38:36.330Z,7.97
2023-03-07T08:41:04.551Z,9.32
2023-03-07T08:43:32.812Z,6.95
2023-03-07T08:46:00.202Z,8.60
2023-03-07T08:48:27.379Z,7.72
2023-03-07T08:50:55.229Z,7.55
2023-03-07T08:53:22.930Z,6.95
2023-03-07T08:55:50.089Z,6.88
2023-03-07T08:58:16.822Z,6.45
2023-03-07T09:00:43.577Z,6.50
2023-03-07T09:03:10.618Z,7.13
2023-03-07T09:05:38.953Z,6.10
2023-03-07T09:08:07.648Z,6.45
2023-03-07T09:10:35.500Z,5.82
2023-03-07T09:13:02.301Z,6.30
2023-03-07T09:15:29.168Z,6.15
2023-03-07T09:17:56.076Z,5.93
2023-03-07T09:20:22.804Z,6.07
2023-03-07T09:22:51.636Z,6.13
2023-03-07T09:25:18.838Z,5.63
2023-03-07T09:27:45.705Z,5.35
2023-03-07T09:30:14.170Z,6.13
2023-03-07T09:32:41.158Z,5.90
2023-03-07T09:35:08.862Z,6.10
2023-03-07T09:37:35.815Z,5.43
2023-03-07T09:40:07.290Z,6.93
2023-03-07T09:42:49.984Z,6.18
2023-03-07T09:45:32.869Z,5.78
2023-03-07T09:48:35.016Z,6.70
2023-03-07T09:51:19.254Z,5.90
2023-03-07T09:54:10.694Z,6.38
2023-03-07T09:56:57.693Z,6.22
2023-03-07T09:59:35.492Z,6.70
2023-03-07T10:02:12.888Z,6.88
2023-03-07T10:05:04.543Z,6.57
2023-03-07T10:07:32.722Z,6.55
2023-03-07T10:10:06.586Z,6.15
2023-03-07T10:12:54.261Z,6.72
2023-03-07T10:15:42.528Z,7.32
2023-03-07T10:18:21.242Z,6.82
2023-03-07T10:21:24.775Z,6.40
2023-03-07T10:24:06.578Z,6.15
2023-03-07T10:26:37.410Z,6.85
2023-03-07T10:29:17.817Z,6.28
2023-03-07T10:31:51.929Z,6.22
2023-03-07T10:34:27.305Z,6.88
2023-03-07T10:37:09.148Z,5.95
2023-03-07T10:39:43.458Z,6.78
2023-03-07T10:42:13.784Z,6.50
2023-03-07T10:44:41.884Z,6.00
2023-03-07T10:47:22.746Z,6.45
2023-03-07T10:49:53.541Z,6.15
2023-03-07T10:52:41.208Z,6.15
2023-03-07T10:55:34.430Z,6.43
2023-03-07T10:58:20.113Z,6.03
2023-03-07T11:01:07.151Z,6.07
2023-03-07T11:03:53.458Z,6.35
2023-03-07T11:06:31.283Z,6.43
2023-03-07T11:09:07.538Z,6.07
2023-03-07T11:11:36.200Z,6.78
2023-03-07T11:14:14.050Z,6.25
2023-03-07T11:16:53.238Z,6.90
2023-03-07T11:19:42.705Z,6.30
2023-03-07T11:22:25.900Z,6.38
2023-03-07T11:27:31.689Z,6.28
2023-03-07T11:30:17.412Z,6.30
2023-03-07T11:32:58.655Z,6.55
2023-03-07T11:35:36.917Z,6.88
2023-03-07T11:38:15.361Z,6.50
2023-03-07T11:41:12.916Z,6.53
2023-03-07T11:43:44.545Z,6.55
2023-03-07T11:46:38.560Z,8.32
2023-03-07T11:49:38.970Z,6.70
2023-03-07T11:52:33.808Z,6.22
2023-03-07T11:55:15.845Z,7.13
2023-03-07T11:58:35.909Z,6.20
2023-03-07T12:01:26.413Z,6.65
2023-03-07T12:04:08.334Z,6.70
2023-03-07T12:07:00.177Z,6.47
2023-03-07T12:09:29.970Z,7.30
2023-03-07T12:12:30.670Z,7.25
2023-03-07T12:15:16.114Z,6.88
2023-03-07T12:18:04.211Z,6.10
2023-03-07T12:20:50.838Z,6.88
2023-03-07T12:23:27.835Z,5.85
2023-03-07T12:26:03.140Z,6.03
2023-03-07T12:28:42.826Z,6.40
2023-03-07T12:31:23.095Z,6.13
2023-03-07T12:34:11.981Z,6.25
2023-03-07T12:36:58.384Z,6.07
2023-03-07T12:39:51.910Z,5.60
2023-03-07T12:45:07.299Z,5.88
2023-03-07T12:47:52.255Z,5.55
2023-03-07T12:50:28.912Z,5.82
2023-03-07T12:53:22.588Z,5.53
2023-03-07T12:56:06.379Z,5.00
2023-03-07T12:58:42.208Z,5.38
2023-03-07T13:01:29.286Z,4.90
2023-03-07T13:04:05.633Z,4.15
2023-03-07T13:06:33.347Z,4.57
2023-03-07T13:09:03.874Z,4.35
2023-03-07T13:11:35.493Z,5.32
2023-03-07T13:14:06.147Z,4.28
2023-03-07T13:16:34.790Z,4.70
2023-03-07T13:19:39.279Z,3.92
2023-03-07T13:22:29.019Z,4.95
2023-03-07T13:25:14.826Z,4.57
2023-03-07T13:27:41.534Z,3.88
2023-03-07T13:30:08.275Z,4.30
2023-03-07T13:32:56.227Z,4.55
2023-03-07T13:35:29.402Z,5.28
2023-03-07T13:38:15.505Z,5.25
2023-03-07T13:40:46.543Z,4.30
2023-03-07T13:43:19.651Z,4.15
2023-03-07T13:45:50.676Z,4.55
2023-03-07T13:48:20.516Z,4.95
2023-03-07T13:50:53.178Z,4.53
2023-03-07T13:53:33.859Z,4.22
2023-03-07T13:56:09.841Z,4.40
2023-03-07T13:58:44.299Z,4.10
2023-03-07T14:01:21.723Z,3.90
2023-03-07T14:04:12.265Z,4.40
2023-03-07T14:06:43.009Z,4.43
2023-03-07T14:09:18.324Z,4.15
2023-03-07T14:11:58.808Z,4.13
2023-03-07T14:14:34.275Z,4.57
2023-03-07T14:17:35.868Z,3.63
2023-03-07T14:20:33.979Z,3.92
2023-03-07T14:23:00.679Z,3.95
2023-03-07T14:25:31.722Z,3.42
2023-03-07T14:28:05.563Z,4.30
2023-03-07T14:30:33.921Z,4.00
2023-03-07T14:33:01.394Z,3.40
2023-03-07T14:35:39.881Z,3.55
2023-03-07T14:38:09.188Z,3.60
2023-03-07T14:40:53.248Z,3.05
2023-03-07T14:43:43.632Z,3.55
2023-03-07T14:46:33.907Z,2.92
2023-03-07T14:49:19.135Z,3.50
2023-03-07T14:51:45.906Z,3.28
2023-03-07T14:54:25.166Z,3.45
2023-03-07T14:56:53.228Z,3.30
2023-03-07T14:59:28.613Z,3.30
2023-03-07T15:01:57.355Z,3.38
2023-03-07T15:04:28.756Z,2.92
2023-03-07T15:06:58.893Z,3.10
2023-03-07T15:09:26.493Z,3.13
2023-03-07T15:12:27.076Z,3.10
2023-03-07T15:14:58.582Z,3.03
2023-03-07T15:17:29.327Z,3.22
2023-03-07T15:20:02.637Z,3.10
2023-03-07T15:22:33.333Z,3.13
2023-03-07T15:25:00.315Z,3.70
2023-03-07T15:27:31.250Z,3.00
2023-03-07T15:30:00.506Z,3.38
2023-03-07T15:32:32.627Z,3.47
2023-03-07T15:35:20.741Z,5.60
2023-03-07T15:37:50.608Z,3.67
2023-03-07T15:40:23.219Z,4.18
2023-03-07T15:42:55.903Z,4.13
2023-03-07T15:45:34.297Z,3.65
2023-03-07T15:48:29.490Z,4.75
2023-03-07T15:50:59.992Z,3.90
2023-03-07T15:53:30.952Z,3.90
2023-03-07T15:56:03.700Z,4.63
2023-03-07T15:58:31.081Z,4.32
2023-03-07T16:01:24.172Z,3.80
2023-03-07T16:04:04.343Z,3.97
2023-03-07T16:06:43.175Z,3.50
2023-03-07T16:09:13.550Z,4.10
2023-03-07T16:11:41.038Z,3.60
2023-03-07T16:14:34.069Z,4.00
2023-03-07T16:17:15.920Z,3.83
2023-03-07T16:19:42.665Z,4.20
2023-03-07T16:22:15.044Z,3.95
2023-03-07T16:24:42.024Z,4.13
2023-03-07T16:27:20.675Z,3.97
2023-03-07T16:29:48.177Z,4.13
2023-03-07T16:32:20.290Z,4.55
2023-03-07T16:34:48.710Z,4.30
2023-03-07T16:37:15.640Z,4.18
2023-03-07T16:39:42.393Z,4.70
2023-03-07T16:42:23.036Z,4.18
2023-03-07T16:44:51.689Z,4.15
2023-03-07T16:47:18.488Z,4.13
2023-03-07T16:49:49.007Z,4.30
2023-03-07T16:52:15.805Z,5.30
2023-03-07T16:54:42.817Z,4.68
2023-03-07T16:57:17.046Z,4.53
2023-03-07T16:59:46.499Z,4.10
2023-03-07T17:02:19.277Z,4.40
2023-03-07T17:04:48.596Z,4.65
2023-03-07T17:07:21.889Z,4.72
2023-03-07T17:09:49.562Z,4.40
2023-03-07T17:12:20.593Z,4.05
2023-03-07T17:14:47.470Z,4.15
2023-03-07T17:17:28.376Z,4.53
2023-03-07T17:19:55.127Z,4.53
2023-03-07T17:22:21.906Z,4.75
2023-03-07T17:24:48.636Z,5.00
2023-03-07T17:27:16.514Z,6.50
2023-03-07T17:29:46.848Z,6.53
2023-03-07T17:32:13.846Z,7.95
2023-03-07T17:34:43.822Z,6.38
2023-03-07T17:37:12.031Z,5.38
2023-03-07T17:39:39.630Z,4.50
2023-03-07T17:42:06.937Z,4.70
2023-03-07T17:44:33.956Z,3.97
2023-03-07T17:47:00.843Z,4.82
2023-03-07T17:49:36.565Z,4.30
2023-03-07T17:52:05.784Z,3.95
2023-03-07T17:54:33.330Z,4.85
2023-03-07T17:57:00.171Z,4.40
2023-03-07T17:59:27.177Z,4.18
2023-03-07T18:01:54.040Z,5.05
2023-03-07T18:04:20.773Z,4.90
2023-03-07T18:06:47.624Z,4.53
2023-03-07T18:09:15.336Z,4.53
2023-03-07T18:11:42.245Z,5.00
2023-03-07T18:14:10.451Z,5.13
2023-03-07T18:16:37.215Z,5.75
2023-03-07T18:19:05.723Z,5.63
2023-03-07T18:21:33.806Z,5.13
2023-03-07T18:24:00.661Z,5.40
2023-03-07T18:26:27.972Z,5.25
2023-03-07T18:28:56.231Z,5.10
2023-03-07T18:31:25.759Z,5.03
2023-03-07T18:33:53.169Z,5.15
2023-03-07T18:36:22.047Z,5.82
2023-03-07T18:38:48.966Z,5.70
2023-03-07T18:41:18.476Z,5.82
2023-03-07T18:43:45.663Z,5.50
2023-03-07T18:46:18.726Z,6.95
2023-03-07T18:48:45.938Z,6.13
2023-03-07T18:51:16.125Z,4.90
2023-03-07T18:53:43.826Z,5.10
2023-03-07T18:56:16.935Z,5.65
2023-03-07T19:01:26.126Z,5.15
2023-03-07T19:03:55.054Z,5.25
2023-03-07T19:06:23.616Z,4.97
2023-03-07T19:08:50.811Z,5.03
2023-03-07T19:11:18.671Z,5.93
2023-03-07T19:13:45.551Z,4.78
2023-03-07T19:16:15.660Z,4.80
2023-03-07T19:18:43.284Z,4.85
2023-03-07T19:21:24.569Z,5.65
2023-03-07T19:23:55.980Z,5.18
2023-03-07T19:26:32.099Z,4.78
2023-03-07T19:28:58.878Z,5.32
2023-03-07T19:31:28.431Z,5.85
2023-03-07T19:33:55.924Z,6.07
2023-03-07T19:36:27.767Z,5.43
2023-03-07T19:38:56.356Z,5.28
2023-03-07T19:41:25.676Z,5.28
2023-03-07T19:43:53.182Z,5.88
2023-03-07T19:46:21.004Z,5.45
2023-03-07T19:48:48.221Z,5.45
2023-03-07T19:51:20.467Z,5.00
2023-03-07T19:53:48.085Z,4.63
2023-03-07T19:56:29.062Z,4.82
2023-03-07T19:58:57.111Z,4.60
2023-03-07T20:01:24.689Z,5.05
2023-03-07T20:03:51.680Z,5.03
2023-03-07T20:06:29.928Z,5.07
2023-03-07T20:08:57.876Z,5.50
2023-03-07T20:11:27.641Z,5.55
2023-03-07T20:13:56.177Z,4.60
2023-03-07T20:16:23.770Z,5.22
2023-03-07T20:18:51.868Z,5.63
2023-03-07T20:21:20.101Z,6.05
2023-03-07T20:23:48.426Z,4.95
2023-03-07T20:26:18.232Z,5.45
2023-03-07T20:28:45.936Z,5.20
2023-03-07T20:31:13.532Z,4.57
2023-03-07T20:33:45.996Z,4.93
2023-03-07T20:36:20.618Z,4.60
2023-03-07T20:38:55.553Z,4.13
2023-03-07T20:41:25.024Z,4.15
2023-03-07T20:43:53.092Z,4.53
2023-03-07T20:46:21.829Z,4.10
2023-03-07T20:48:51.901Z,3.80
2023-03-07T20:51:21.805Z,3.42
2023-03-07T20:53:51.023Z,4.03
2023-03-07T20:56:19.247Z,3.60
2023-03-07T20:58:46.555Z,3.85
2023-03-07T21:01:16.818Z,3.85
2023-03-07T21:03:43.577Z,3.63
2023-03-07T21:06:10.386Z,4.07
2023-03-07T21:08:38.256Z,3.88
2023-03-07T21:11:19.791Z,4.25
2023-03-07T21:13:48.891Z,4.55
2023-03-07T21:16:23.925Z,4.03
2023-03-07T21:18:50.926Z,3.72
2023-03-07T21:21:21.162Z,3.65
2023-03-07T21:23:48.616Z,3.80
2023-03-07T21:26:18.638Z,3.90
2023-03-07T21:28:45.471Z,3.78
2023-03-07T21:31:12.295Z,3.90
2023-03-07T21:33:40.681Z,4.05
2023-03-07T21:36:12.534Z,4.60
2023-03-07T21:38:41.740Z,3.67
2023-03-07T21:41:08.912Z,3.67
2023-03-07T21:43:36.078Z,4.05
2023-03-07T21:46:05.002Z,3.70
2023-03-07T21:48:32.145Z,3.65
2023-03-07T21:50:59.667Z,3.95
2023-03-07T21:53:26.691Z,4.03
2023-03-07T21:56:00.182Z,4.10
2023-03-07T21:58:27.920Z,4.10
2023-03-07T22:00:56.449Z,4.47
2023-03-07T22:03:25.537Z,4.35
2023-03-07T22:05:52.516Z,4.40
2023-03-07T22:08:20.443Z,4.40
2023-03-07T22:10:58.051Z,4.68
2023-03-07T22:13:24.891Z,5.20
2023-03-07T22:15:56.368Z,5.10
2023-03-07T22:18:23.743Z,5.15
2023-03-07T22:20:50.707Z,5.25
2023-03-07T22:23:17.637Z,4.50
2023-03-07T22:25:44.623Z,5.20
2023-03-07T22:28:11.362Z,5.28
2023-03-07T22:30:38.122Z,5.57
2023-03-07T22:33:04.868Z,5.55
2023-03-07T22:35:31.684Z,5.40
2023-03-07T22:37:58.416Z,5.93
2023-03-07T22:40:25.216Z,5.57
2023-03-07T22:42:52.486Z,6.10
2023-03-07T22:45:19.309Z,6.20
2023-03-07T22:47:46.062Z,5.45
2023-03-07T22:50:12.892Z,5.70
2023-03-07T22:52:39.757Z,6.15
2023-03-07T22:55:06.612Z,5.80
2023-03-07T22:57:33.370Z,6.43
2023-03-07T23:00:00.097Z,6.28
2023-03-07T23:02:26.890Z,6.38
2023-03-07T23:04:53.723Z,6.35
2023-03-07T23:07:20.494Z,6.65
2023-03-07T23:09:47.221Z,6.35
2023-03-07T23:12:13.984Z,5.95
2023-03-07T23:14:40.927Z,6.32
2023-03-07T23:17:07.706Z,6.35
2023-03-07T23:19:34.436Z,6.78
2023-03-07T23:22:01.169Z,6.55
2023-03-07T23:24:27.906Z,6.00
2023-03-07T23:26:54.699Z,6.88
2023-03-07T23:29:21.432Z,6.88
2023-03-07T23:31:48.186Z,8.00
2023-03-07T23:34:18.181Z,6.78
2023-03-07T23:36:45.658Z,6.70
2023-03-07T23:39:12.886Z,6.57
2023-03-07T23:41:39.656Z,7.07
2023-03-07T23:44:06.451Z,6.82
2023-03-07T23:46:33.776Z,6.97
2023-03-07T23:49:01.004Z,6.85
2023-03-07T23:51:28.095Z,6.20
2023-03-07T23:53:55.191Z,6.10
2023-03-07T23:56:22.246Z,7.03
2023-03-07T23:58:52.781Z,6.20
